createdAt,value
2022-09-23T00:00:33.781Z,9.40
2022-09-23T00:03:03.921Z,9.38
2022-09-23T00:05:35.333Z,9.40
2022-09-23T00:08:08.219Z,9.35
2022-09-23T00:10:42.582Z,9.31
2022-09-23T00:13:14.012Z,9.31
2022-09-23T00:15:44.193Z,9.26
2022-09-23T00:18:14.353Z,9.27
2022-09-23T00:20:44.525Z,9.21
2022-09-23T00:23:14.994Z,9.19
2022-09-23T00:25:47.835Z,9.16
2022-09-23T00:28:18.032Z,9.14
2022-09-23T00:30:48.298Z,9.15
2022-09-23T00:33:18.501Z,9.10
2022-09-23T00:35:48.783Z,9.03
2022-09-23T00:38:19.020Z,9.01
2022-09-23T00:40:52.414Z,8.97
2022-09-23T00:43:23.254Z,8.85
2022-09-23T00:45:55.063Z,8.82
2022-09-23T00:48:25.423Z,8.71
2022-09-23T00:50:57.785Z,8.74
2022-09-23T00:53:29.525Z,8.69
2022-09-23T00:56:07.748Z,8.64
2022-09-23T00:58:42.561Z,8.61
2022-09-23T01:01:14.967Z,8.60
2022-09-23T01:03:47.495Z,8.59
2022-09-23T01:06:18.037Z,8.51
2022-09-23T01:08:51.720Z,8.58
2022-09-23T01:11:42.804Z,8.49
2022-09-23T01:14:38.420Z,8.47
2022-09-23T01:17:14.256Z,8.45
2022-09-23T01:20:13.949Z,8.45
2022-09-23T01:22:53.099Z,8.44
2022-09-23T01:25:36.993Z,8.43
2022-09-23T01:28:33.473Z,8.39
2022-09-23T01:31:14.204Z,8.41
2022-09-23T01:33:54.745Z,8.39
2022-09-23T01:36:33.505Z,8.40
2022-09-23T01:39:11.712Z,8.40
2022-09-23T01:41:51.678Z,8.38
2022-09-23T01:44:25.860Z,8.32
2022-09-23T01:47:11.098Z,8.31
2022-09-23T01:49:48.207Z,8.36
2022-09-23T01:52:23.348Z,8.37
2022-09-23T01:55:00.752Z,8.37
2022-09-23T01:57:34.532Z,8.34
2022-09-23T02:00:13.426Z,8.35
2022-09-23T02:02:50.860Z,8.33
2022-09-23T02:05:25.077Z,8.33
2022-09-23T02:08:00.005Z,8.34
2022-09-23T02:10:36.412Z,8.36
2022-09-23T02:13:10.252Z,8.38
2022-09-23T02:15:47.709Z,8.42
2022-09-23T02:18:25.170Z,8.45
2022-09-23T02:21:00.493Z,8.49
2022-09-23T02:23:36.737Z,8.45
2022-09-23T02:26:12.012Z,8.48
2022-09-23T02:28:52.815Z,8.50
2022-09-23T02:31:31.667Z,8.47
2022-09-23T02:34:10.799Z,8.44
2022-09-23T02:36:53.046Z,8.57
2022-09-23T02:39:28.824Z,8.63
2022-09-23T02:42:07.810Z,8.67
2022-09-23T02:44:40.769Z,8.69
2022-09-23T02:47:10.932Z,8.73
2022-09-23T02:49:43.979Z,8.76
2022-09-23T02:52:18.245Z,8.78
2022-09-23T02:54:51.434Z,8.79
2022-09-23T02:57:22.306Z,8.70
2022-09-23T02:59:53.273Z,8.71
2022-09-23T03:02:51.383Z,8.67
2022-09-23T03:05:32.421Z,8.66
2022-09-23T03:08:28.133Z,8.76
2022-09-23T03:11:04.480Z,8.73
2022-09-23T03:13:46.461Z,8.78
2022-09-23T03:16:24.359Z,8.75
2022-09-23T03:19:00.494Z,8.84
2022-09-23T03:21:39.498Z,8.89
2022-09-23T03:24:14.910Z,8.86
2022-09-23T03:26:49.515Z,8.90
2022-09-23T03:29:21.504Z,8.86
2022-09-23T03:31:54.403Z,9.00
2022-09-23T03:34:28.240Z,9.05
2022-09-23T03:37:07.148Z,9.08
2022-09-23T03:39:43.057Z,9.15
2022-09-23T03:42:17.383Z,9.19
2022-09-23T03:44:48.934Z,9.20
2022-09-23T03:47:19.920Z,9.24
2022-09-23T03:49:52.124Z,9.30
2022-09-23T03:52:26.565Z,9.36
2022-09-23T03:54:57.756Z,9.40
2022-09-23T03:57:27.961Z,9.40
2022-09-23T03:59:58.128Z,9.36
2022-09-23T04:02:31.987Z,9.33
2022-09-23T04:05:02.347Z,9.25
2022-09-23T04:07:35.180Z,9.27
2022-09-23T04:10:05.540Z,9.29
2022-09-23T04:12:36.451Z,9.34
2022-09-23T04:15:07.423Z,9.37
2022-09-23T04:17:37.613Z,9.38
2022-09-23T04:20:09.005Z,9.38
2022-09-23T04:22:41.709Z,9.37
2022-09-23T04:25:12.702Z,9.37
2022-09-23T04:27:42.800Z,9.39
2022-09-23T04:30:15.916Z,9.37
2022-09-23T04:32:46.083Z,9.40
2022-09-23T04:35:16.256Z,9.39
2022-09-23T04:37:52.033Z,9.44
2022-09-23T04:40:22.266Z,9.38
2022-09-23T04:42:52.413Z,9.42
2022-09-23T04:45:22.580Z,9.47
2022-09-23T04:47:53.287Z,9.51
2022-09-23T04:50:23.493Z,9.54
2022-09-23T04:52:57.017Z,9.53
2022-09-23T04:55:27.240Z,9.62
2022-09-23T04:57:57.605Z,9.65
2022-09-23T05:00:28.831Z,9.65
2022-09-23T05:02:59.084Z,9.67
2022-09-23T05:05:29.914Z,9.63
2022-09-23T05:08:02.652Z,9.64
2022-09-23T05:10:34.863Z,9.63
2022-09-23T05:13:04.930Z,9.65
2022-09-23T05:15:35.136Z,9.69
2022-09-23T05:18:05.373Z,9.77
2022-09-23T05:20:35.824Z,9.89
2022-09-23T05:23:11.780Z,9.98
2022-09-23T05:25:42.674Z,10.10
2022-09-23T05:28:15.200Z,10.22
2022-09-23T05:30:45.446Z,10.36
2022-09-23T05:33:16.982Z,10.50
2022-09-23T05:35:50.280Z,10.57
2022-09-23T05:38:23.046Z,10.68
2022-09-23T05:40:58.789Z,10.71
2022-09-23T05:43:29.964Z,10.78
2022-09-23T05:46:08.689Z,10.93
2022-09-23T05:48:40.162Z,11.08
2022-09-23T05:51:12.935Z,11.23
2022-09-23T05:53:47.097Z,11.32
2022-09-23T05:56:20.079Z,11.52
2022-09-23T05:58:52.352Z,11.71
2022-09-23T06:01:25.086Z,11.90
2022-09-23T06:03:56.508Z,11.99
2022-09-23T06:06:41.547Z,12.14
2022-09-23T06:09:16.397Z,12.20
2022-09-23T06:11:50.968Z,12.47
2022-09-23T06:14:21.351Z,12.65
2022-09-23T06:16:51.567Z,12.70
2022-09-23T06:19:21.725Z,12.75
2022-09-23T06:21:54.323Z,12.86
2022-09-23T06:24:31.138Z,12.82
2022-09-23T06:27:02.639Z,12.77
2022-09-23T06:29:33.875Z,12.64
2022-09-23T06:32:04.829Z,12.69
2022-09-23T06:34:47.236Z,12.62
2022-09-23T06:37:21.051Z,12.89
2022-09-23T06:39:54.944Z,13.15
2022-09-23T06:42:24.890Z,13.15
2022-09-23T06:44:55.116Z,13.07
2022-09-23T06:47:26.714Z,13.11
2022-09-23T06:49:57.013Z,13.40
2022-09-23T06:52:27.278Z,13.70
2022-09-23T06:55:01.114Z,13.92
2022-09-23T06:57:32.987Z,14.43
2022-09-23T07:00:03.484Z,15.07
2022-09-23T07:02:33.918Z,15.29
2022-09-23T07:05:04.122Z,15.05
2022-09-23T07:07:36.914Z,14.83
2022-09-23T07:10:11.230Z,14.49
2022-09-23T07:12:41.141Z,14.03
2022-09-23T07:15:12.436Z,14.34
2022-09-23T07:17:45.045Z,14.37
2022-09-23T07:20:16.160Z,14.72
2022-09-23T07:22:46.394Z,14.95
2022-09-23T07:25:19.223Z,15.17
2022-09-23T07:27:49.903Z,15.04
2022-09-23T07:30:25.162Z,15.20
2022-09-23T07:32:56.084Z,15.45
2022-09-23T07:35:28.283Z,15.95
2022-09-23T07:37:58.575Z,16.13
2022-09-23T07:40:31.401Z,16.30
2022-09-23T07:43:02.253Z,15.98
2022-09-23T07:45:34.308Z,16.02
2022-09-23T07:48:05.331Z,15.79
2022-09-23T07:50:35.468Z,15.63
2022-09-23T07:53:06.627Z,15.71
2022-09-23T07:55:39.406Z,15.51
2022-09-23T07:58:09.630Z,15.73
2022-09-23T08:00:40.295Z,15.81
2022-09-23T08:03:11.100Z,15.72
2022-09-23T08:05:41.719Z,15.85
2022-09-23T08:08:11.928Z,15.57
2022-09-23T08:10:45.306Z,15.26
2022-09-23T08:13:17.716Z,15.45
2022-09-23T08:15:55.239Z,15.53
2022-09-23T08:18:25.706Z,15.61
2022-09-23T08:20:56.411Z,15.61
2022-09-23T08:23:26.656Z,15.75
2022-09-23T08:26:03.897Z,15.80
2022-09-23T08:28:35.299Z,15.89
2022-09-23T08:31:05.650Z,15.88
2022-09-23T08:33:35.808Z,15.94
2022-09-23T08:36:06.919Z,16.02
2022-09-23T08:38:37.111Z,16.07
2022-09-23T08:41:19.417Z,16.13
2022-09-23T08:43:54.284Z,16.10
2022-09-23T08:46:29.549Z,15.96
2022-09-23T08:49:05.835Z,15.92
2022-09-23T08:51:42.736Z,15.90
2022-09-23T08:54:14.078Z,15.80
2022-09-23T08:56:53.461Z,15.78
2022-09-23T08:59:29.374Z,15.80
2022-09-23T09:02:03.538Z,15.72
2022-09-23T09:04:45.169Z,15.59
2022-09-23T09:07:37.817Z,15.61
2022-09-23T09:10:18.336Z,15.72
2022-09-23T09:12:53.835Z,15.75
2022-09-23T09:15:26.817Z,15.85
2022-09-23T09:18:04.237Z,16.05
2022-09-23T09:20:42.842Z,16.03
2022-09-23T09:23:24.732Z,16.00
2022-09-23T09:25:57.049Z,16.13
2022-09-23T09:28:34.106Z,16.37
2022-09-23T09:31:05.869Z,16.54
2022-09-23T09:33:47.633Z,16.46
2022-09-23T09:36:36.150Z,16.84
2022-09-23T09:39:07.060Z,16.76
2022-09-23T09:41:39.146Z,17.04
2022-09-23T09:44:26.468Z,17.21
2022-09-23T09:47:08.859Z,17.62
2022-09-23T09:49:45.853Z,18.38
2022-09-23T09:52:29.167Z,19.28
2022-09-23T09:55:20.875Z,19.45
2022-09-23T09:57:55.054Z,19.64
2022-09-23T10:00:48.037Z,19.44
2022-09-23T10:03:28.424Z,19.07
2022-09-23T10:05:58.638Z,19.03
2022-09-23T10:08:35.098Z,18.63
2022-09-23T10:11:08.295Z,18.44
2022-09-23T10:13:38.389Z,18.57
2022-09-23T10:16:12.199Z,18.53
2022-09-23T10:18:51.070Z,18.60
2022-09-23T10:21:27.949Z,18.79
2022-09-23T10:24:01.718Z,18.69
2022-09-23T10:26:35.073Z,18.60
2022-09-23T10:29:06.314Z,18.32
2022-09-23T10:31:39.418Z,18.70
2022-09-23T10:34:26.771Z,18.17
2022-09-23T10:36:58.568Z,17.96
2022-09-23T10:39:41.217Z,18.22
2022-09-23T10:42:33.291Z,18.49
2022-09-23T10:45:24.674Z,18.46
2022-09-23T10:48:04.229Z,18.16
2022-09-23T10:50:42.185Z,17.89
2022-09-23T10:53:21.892Z,17.71
2022-09-23T10:56:07.638Z,17.64
2022-09-23T10:59:01.051Z,17.41
2022-09-23T11:01:42.443Z,17.31
2022-09-23T11:04:35.121Z,17.03
2022-09-23T11:07:21.182Z,17.06
2022-09-23T11:10:23.329Z,16.99
2022-09-23T11:13:08.254Z,17.47
2022-09-23T11:15:51.774Z,17.99
2022-09-23T11:18:50.993Z,18.49
2022-09-23T11:21:57.902Z,18.75
2022-09-23T11:25:03.698Z,19.42
2022-09-23T11:27:46.726Z,19.85
2022-09-23T11:30:22.575Z,20.17
2022-09-23T11:33:24.869Z,20.13
2022-09-23T11:36:00.541Z,20.35
2022-09-23T11:38:41.247Z,20.69
2022-09-23T11:41:20.530Z,20.81
2022-09-23T11:43:55.649Z,20.38
2022-09-23T11:46:34.791Z,19.36
2022-09-23T11:49:12.732Z,18.89
2022-09-23T11:51:51.416Z,19.04
2022-09-23T11:54:29.304Z,19.04
2022-09-23T11:57:03.192Z,18.91
2022-09-23T11:59:41.264Z,18.95
2022-09-23T12:02:24.675Z,18.89
2022-09-23T12:05:06.905Z,18.84
2022-09-23T12:07:51.899Z,18.56
2022-09-23T12:10:26.455Z,18.65
2022-09-23T12:13:08.420Z,18.82
2022-09-23T12:15:53.333Z,18.81
2022-09-23T12:18:44.864Z,18.61
2022-09-23T12:21:57.134Z,18.65
2022-09-23T12:24:46.298Z,18.94
2022-09-23T12:27:28.051Z,19.01
2022-09-23T12:30:02.634Z,19.01
2022-09-23T12:32:34.406Z,19.17
2022-09-23T12:35:04.789Z,19.22
2022-09-23T12:37:38.207Z,19.49
2022-09-23T12:40:19.871Z,19.30
2022-09-23T12:42:53.636Z,19.11
2022-09-23T12:45:40.210Z,19.01
2022-09-23T12:48:40.643Z,18.89
2022-09-23T12:51:35.030Z,18.92
2022-09-23T12:54:22.541Z,18.93
2022-09-23T12:57:12.528Z,18.77
2022-09-23T13:00:17.221Z,18.87
2022-09-23T13:03:10.448Z,19.08
2022-09-23T13:05:59.042Z,19.12
2022-09-23T13:08:30.126Z,18.93
2022-09-23T13:11:03.166Z,19.01
2022-09-23T13:13:38.130Z,18.82
2022-09-23T13:16:25.549Z,18.67
2022-09-23T13:18:57.930Z,18.58
2022-09-23T13:22:08.915Z,18.65
2022-09-23T13:24:46.771Z,18.67
2022-09-23T13:27:22.914Z,18.72
2022-09-23T13:30:00.461Z,18.76
2022-09-23T13:32:42.462Z,18.82
2022-09-23T13:35:22.911Z,18.71
2022-09-23T13:37:56.457Z,18.69
2022-09-23T13:40:30.042Z,18.60
2022-09-23T13:43:04.007Z,18.49
2022-09-23T13:45:40.047Z,18.62
2022-09-23T13:48:18.576Z,18.74
2022-09-23T13:50:52.055Z,18.67
2022-09-23T13:53:26.682Z,18.76
2022-09-23T13:56:05.355Z,18.72
2022-09-23T13:58:37.262Z,18.71
2022-09-23T14:01:12.451Z,18.54
2022-09-23T14:03:47.950Z,18.55
2022-09-23T14:06:18.878Z,18.52
2022-09-23T14:08:51.291Z,18.44
2022-09-23T14:11:23.504Z,18.44
2022-09-23T14:13:55.339Z,18.34
2022-09-23T14:16:28.381Z,18.43
2022-09-23T14:19:03.348Z,18.19
2022-09-23T14:21:36.856Z,18.14
2022-09-23T14:24:28.318Z,17.96
2022-09-23T14:27:02.169Z,17.98
2022-09-23T14:29:35.510Z,17.87
2022-09-23T14:32:08.781Z,17.97
2022-09-23T14:34:50.689Z,18.02
2022-09-23T14:37:51.772Z,17.89
2022-09-23T14:40:25.068Z,17.97
2022-09-23T14:43:05.143Z,18.02
2022-09-23T14:45:38.510Z,18.10
2022-09-23T14:48:11.718Z,18.19
2022-09-23T14:50:51.455Z,18.17
2022-09-23T14:53:38.014Z,18.01
2022-09-23T14:56:26.290Z,17.92
2022-09-23T14:59:01.816Z,17.97
2022-09-23T15:01:40.461Z,17.93
2022-09-23T15:04:17.055Z,17.86
2022-09-23T15:06:53.870Z,17.85
2022-09-23T15:09:27.768Z,17.90
2022-09-23T15:12:02.039Z,17.71
2022-09-23T15:14:39.639Z,17.82
2022-09-23T15:17:32.697Z,17.72
2022-09-23T15:20:06.623Z,17.63
2022-09-23T15:22:45.486Z,17.44
2022-09-23T15:25:21.024Z,17.47
2022-09-23T15:28:06.093Z,17.53
2022-09-23T15:30:39.209Z,17.53
2022-09-23T15:33:10.216Z,17.49
2022-09-23T15:35:45.420Z,17.40
2022-09-23T15:38:18.936Z,17.43
2022-09-23T15:40:50.266Z,17.38
2022-09-23T15:43:22.721Z,17.10
2022-09-23T15:45:54.858Z,17.18
2022-09-23T15:48:27.921Z,17.06
2022-09-23T15:50:58.636Z,16.93
2022-09-23T15:53:31.669Z,16.90
2022-09-23T15:56:02.011Z,16.82
2022-09-23T15:58:32.830Z,16.74
2022-09-23T16:01:03.964Z,16.66
2022-09-23T16:03:34.234Z,16.56
2022-09-23T16:06:06.366Z,16.45
2022-09-23T16:08:39.255Z,16.34
2022-09-23T16:11:09.533Z,16.21
2022-09-23T16:13:39.758Z,16.09
2022-09-23T16:16:10.046Z,15.98
2022-09-23T16:18:42.549Z,15.86
2022-09-23T16:21:15.834Z,15.71
2022-09-23T16:23:51.608Z,15.57
2022-09-23T16:26:24.764Z,15.48
2022-09-23T16:28:56.701Z,15.32
2022-09-23T16:31:29.734Z,15.15
2022-09-23T16:34:02.303Z,15.00
2022-09-23T16:36:34.079Z,14.85
2022-09-23T16:39:09.885Z,14.70
2022-09-23T16:41:44.119Z,14.54
2022-09-23T16:44:14.622Z,14.40
2022-09-23T16:46:45.004Z,14.27
2022-09-23T16:49:15.352Z,14.13
2022-09-23T16:51:45.463Z,14.05
2022-09-23T16:54:19.416Z,13.96
2022-09-23T16:56:50.591Z,13.87
2022-09-23T16:59:20.847Z,13.72
2022-09-23T17:02:03.443Z,13.61
2022-09-23T17:04:33.950Z,13.46
2022-09-23T17:07:04.156Z,13.38
2022-09-23T17:09:36.923Z,13.31
2022-09-23T17:12:15.257Z,13.21
2022-09-23T17:14:45.457Z,13.10
2022-09-23T17:17:15.876Z,13.04
2022-09-23T17:19:46.330Z,12.93
2022-09-23T17:22:19.538Z,12.86
2022-09-23T17:24:53.865Z,12.79
2022-09-23T17:27:25.059Z,12.72
2022-09-23T17:29:55.268Z,12.64
2022-09-23T17:32:25.432Z,12.57
2022-09-23T17:34:59.879Z,12.50
2022-09-23T17:37:32.404Z,12.42
2022-09-23T17:40:08.582Z,12.37
2022-09-23T17:42:42.439Z,12.29
2022-09-23T17:45:13.252Z,12.21
2022-09-23T17:47:43.410Z,12.14
2022-09-23T17:50:15.102Z,12.06
2022-09-23T17:52:45.258Z,12.07
2022-09-23T17:55:18.290Z,12.47
2022-09-23T17:57:53.333Z,12.80
2022-09-23T18:00:23.577Z,12.76
2022-09-23T18:02:54.728Z,12.59
2022-09-23T18:05:25.376Z,12.38
2022-09-23T18:07:56.753Z,12.19
2022-09-23T18:10:29.526Z,12.06
2022-09-23T18:12:59.690Z,11.91
2022-09-23T18:15:29.874Z,11.83
2022-09-23T18:18:00.117Z,11.77
2022-09-23T18:20:30.378Z,11.68
2022-09-23T18:23:00.938Z,11.61
2022-09-23T18:25:39.700Z,11.55
2022-09-23T18:28:10.268Z,11.51
2022-09-23T18:30:40.719Z,11.45
2022-09-23T18:33:10.911Z,11.40
2022-09-23T18:35:43.863Z,11.35
2022-09-23T18:38:14.740Z,11.29
2022-09-23T18:40:57.160Z,11.24
2022-09-23T18:43:33.771Z,11.19
2022-09-23T18:46:09.222Z,11.15
2022-09-23T18:48:51.859Z,11.11
2022-09-23T18:51:25.724Z,11.09
2022-09-23T18:53:57.711Z,11.06
2022-09-23T18:56:34.950Z,10.99
2022-09-23T18:59:09.532Z,10.96
2022-09-23T19:01:40.039Z,10.90
2022-09-23T19:04:10.586Z,10.84
2022-09-23T19:06:40.983Z,10.82
2022-09-23T19:09:12.276Z,10.76
2022-09-23T19:11:45.336Z,10.70
2022-09-23T19:14:16.194Z,10.69
2022-09-23T19:16:49.200Z,10.64
2022-09-23T19:19:19.901Z,10.58
2022-09-23T19:21:50.194Z,10.48
2022-09-23T19:24:21.163Z,10.52
2022-09-23T19:26:54.008Z,10.44
2022-09-23T19:29:24.954Z,10.41
2022-09-23T19:31:56.280Z,10.35
2022-09-23T19:34:29.321Z,10.32
2022-09-23T19:37:01.572Z,10.28
2022-09-23T19:39:32.115Z,10.21
2022-09-23T19:42:04.967Z,10.17
2022-09-23T19:44:39.423Z,10.14
2022-09-23T19:47:16.012Z,10.12
2022-09-23T19:49:47.557Z,10.07
2022-09-23T19:52:20.187Z,10.06
2022-09-23T19:54:50.864Z,10.02
2022-09-23T19:57:23.693Z,9.98
2022-09-23T19:59:53.883Z,9.97
2022-09-23T20:02:24.044Z,9.92
2022-09-23T20:04:54.294Z,9.91
2022-09-23T20:07:28.398Z,9.90
2022-09-23T20:09:58.664Z,9.82
2022-09-23T20:12:35.244Z,9.78
2022-09-23T20:15:05.492Z,9.77
2022-09-23T20:17:35.782Z,9.76
2022-09-23T20:20:09.045Z,9.72
2022-09-23T20:22:40.271Z,9.71
2022-09-23T20:25:13.667Z,9.65
2022-09-23T20:27:48.246Z,9.64
2022-09-23T20:30:19.183Z,9.60
2022-09-23T20:32:50.146Z,9.56
2022-09-23T20:35:20.222Z,9.53
2022-09-23T20:37:50.782Z,9.50
2022-09-23T20:40:23.209Z,9.49
2022-09-23T20:42:56.100Z,9.46
2022-09-23T20:45:26.216Z,9.42
2022-09-23T20:47:57.136Z,9.40
2022-09-23T20:50:27.377Z,9.40
2022-09-23T20:53:01.362Z,9.36
2022-09-23T20:55:32.180Z,9.35
2022-09-23T20:58:08.013Z,9.33
2022-09-23T21:00:38.288Z,9.31
2022-09-23T21:03:09.084Z,9.27
2022-09-23T21:05:42.281Z,9.25
2022-09-23T21:08:12.753Z,9.24
2022-09-23T21:10:42.932Z,9.21
2022-09-23T21:13:15.756Z,9.17
2022-09-23T21:15:45.970Z,9.16
2022-09-23T21:18:20.437Z,9.13
2022-09-23T21:20:59.363Z,9.12
2022-09-23T21:23:30.765Z,9.02
2022-09-23T21:26:03.724Z,9.07
2022-09-23T21:28:38.326Z,9.02
2022-09-23T21:31:09.151Z,9.01
2022-09-23T21:33:39.638Z,8.94
2022-09-23T21:36:10.594Z,8.98
2022-09-23T21:38:41.274Z,8.94
2022-09-23T21:41:14.007Z,8.92
2022-09-23T21:43:47.604Z,8.89
2022-09-23T21:46:20.438Z,8.89
2022-09-23T21:48:53.589Z,8.84
2022-09-23T21:51:26.504Z,8.88
2022-09-23T21:53:58.583Z,8.82
2022-09-23T21:56:31.022Z,8.78
2022-09-23T21:59:04.571Z,8.76
2022-09-23T22:01:36.678Z,8.76
2022-09-23T22:04:10.812Z,8.75
2022-09-23T22:06:41.782Z,8.70
2022-09-23T22:09:15.073Z,8.65
2022-09-23T22:11:57.910Z,8.66
2022-09-23T22:14:34.153Z,8.62
2022-09-23T22:17:06.384Z,8.62
2022-09-23T22:19:45.585Z,8.61
2022-09-23T22:22:18.677Z,8.59
2022-09-23T22:24:50.324Z,8.57
2022-09-23T22:27:22.424Z,8.52
2022-09-23T22:30:07.546Z,8.51
2022-09-23T22:32:43.814Z,8.49
2022-09-23T22:35:16.808Z,8.48
2022-09-23T22:37:48.875Z,8.45
2022-09-23T22:40:20.387Z,8.45
2022-09-23T22:42:50.865Z,8.43
2022-09-23T22:45:25.041Z,8.41
2022-09-23T22:47:55.581Z,8.38
2022-09-23T22:50:27.617Z,8.38
2022-09-23T22:52:57.801Z,8.33
2022-09-23T22:55:30.049Z,8.33
2022-09-23T22:58:15.388Z,8.30
2022-09-23T23:00:55.938Z,8.32
2022-09-23T23:03:27.189Z,8.29
2022-09-23T23:05:57.741Z,8.27
2022-09-23T23:08:28.533Z,8.24
2022-09-23T23:11:00.910Z,8.25
2022-09-23T23:13:34.349Z,8.19
2022-09-23T23:16:10.423Z,8.16
2022-09-23T23:18:43.398Z,8.14
2022-09-23T23:21:15.357Z,8.09
2022-09-23T23:23:47.214Z,8.08
2022-09-23T23:26:20.049Z,8.06
2022-09-23T23:28:51.649Z,8.05
2022-09-23T23:31:26.045Z,8.06
2022-09-23T23:33:57.328Z,8.04
2022-09-23T23:36:27.685Z,8.01
2022-09-23T23:38:57.880Z,7.96
2022-09-23T23:41:31.708Z,7.94
2022-09-23T23:44:03.184Z,7.90
2022-09-23T23:46:37.426Z,7.92
2022-09-23T23:49:08.419Z,7.89
2022-09-23T23:51:38.611Z,7.89
2022-09-23T23:54:08.930Z,7.88
2022-09-23T23:56:46.178Z,7.88
2022-09-23T23:59:16.299Z,7.83
